sensor_id;sensor_type;location;lat;lon;timestamp;pressure;altitude;pressure_sealevel;temperature;humidity
10718;BME280;13513;42.700;23.124;2023-02-28T00:01:18;93336.16;;;7.13;100.00
10718;BME280;13513;42.700;23.124;2023-02-28T00:03:49;93337.27;;;7.15;100.00
10718;BME280;13513;42.700;23.124;2023-02-28T00:06:20;93341.49;;;7.16;100.00
10718;BME280;13513;42.700;23.124;2023-02-28T00:08:51;93341.77;;;7.08;100.00
10718;BME280;13513;42.700;23.124;2023-02-28T00:11:22;93340.59;;;7.13;100.00
10718;BME280;13513;42.700;23.124;2023-02-28T00:13:53;93339.34;;;7.06;100.00
10718;BME280;13513;42.700;23.124;2023-02-28T00:16:24;93348.05;;;7.07;100.00
10718;BME280;13513;42.700;23.124;2023-02-28T00:18:55;93346.05;;;7.02;100.00
10718;BME280;13513;42.700;23.124;2023-02-28T00:21:26;93347.97;;;7.04;100.00
10718;BME280;13513;42.700;23.124;2023-02-28T00:23:57;93353.86;;;7.00;100.00
10718;BME280;13513;42.700;23.124;2023-02-28T00:26:28;93360.08;;;6.90;100.00
10718;BME280;13513;42.700;23.124;2023-02-28T00:28:58;93363.02;;;6.91;100.00
10718;BME280;13513;42.700;23.124;2023-02-28T00:31:29;93359.92;;;6.85;100.00
10718;BME280;13513;42.700;23.124;2023-02-28T00:34:00;93360.45;;;6.84;100.00
10718;BME280;13513;42.700;23.124;2023-02-28T00:36:30;93361.45;;;6.83;100.00
10718;BME280;13513;42.700;23.124;2023-02-28T00:39:01;93365.64;;;6.75;100.00
10718;BME280;13513;42.700;23.124;2023-02-28T00:41:32;93363.15;;;6.71;100.00
10718;BME280;13513;42.700;23.124;2023-02-28T00:44:03;93365.56;;;6.73;100.00
10718;BME280;13513;42.700;23.124;2023-02-28T00:46:33;93365.41;;;6.68;100.00
10718;BME280;13513;42.700;23.124;2023-02-28T00:49:04;93365.82;;;6.65;100.00
10718;BME280;13513;42.700;23.124;2023-02-28T00:51:36;93362.10;;;6.48;100.00
10718;BME280;13513;42.700;23.124;2023-02-28T00:54:06;93358.16;;;6.48;100.00
10718;BME280;13513;42.700;23.124;2023-02-28T00:56:37;93359.84;;;6.51;100.00
10718;BME280;13513;42.700;23.124;2023-02-28T00:59:06;93353.78;;;6.51;100.00
10718;BME280;13513;42.700;23.124;2023-02-28T01:01:37;93354.09;;;6.52;100.00
10718;BME280;13513;42.700;23.124;2023-02-28T01:04:08;93352.47;;;6.51;100.00
10718;BME280;13513;42.700;23.124;2023-02-28T01:06:40;93354.84;;;6.59;100.00
10718;BME280;13513;42.700;23.124;2023-02-28T01:09:12;93356.01;;;6.69;100.00
10718;BME280;13513;42.700;23.124;2023-02-28T01:11:43;93354.44;;;6.77;100.00
10718;BME280;13513;42.700;23.124;2023-02-28T01:14:16;93355.54;;;6.79;100.00
10718;BME280;13513;42.700;23.124;2023-02-28T01:16:47;93349.34;;;6.82;100.00
10718;BME280;13513;42.700;23.124;2023-02-28T01:19:17;93353.44;;;6.87;100.00
10718;BME280;13513;42.700;23.124;2023-02-28T01:21:48;93352.52;;;6.91;100.00
10718;BME280;13513;42.700;23.124;2023-02-28T01:24:19;93353.52;;;6.90;100.00
10718;BME280;13513;42.700;23.124;2023-02-28T01:26:50;93351.91;;;6.89;100.00
10718;BME280;13513;42.700;23.124;2023-02-28T01:29:20;93339.59;;;6.89;100.00
10718;BME280;13513;42.700;23.124;2023-02-28T01:31:50;93337.05;;;6.92;100.00
10718;BME280;13513;42.700;23.124;2023-02-28T01:34:20;93345.77;;;6.86;100.00
10718;BME280;13513;42.700;23.124;2023-02-28T01:36:51;93342.64;;;6.86;100.00
10718;BME280;13513;42.700;23.124;2023-02-28T01:39:22;93344.51;;;6.95;100.00
10718;BME280;13513;42.700;23.124;2023-02-28T01:41:53;93338.78;;;6.89;100.00
10718;BME280;13513;42.700;23.124;2023-02-28T01:44:59;93341.44;;;6.73;100.00
10718;BME280;13513;42.700;23.124;2023-02-28T01:47:34;93340.72;;;6.60;100.00
10718;BME280;13513;42.700;23.124;2023-02-28T01:50:06;93347.66;;;6.63;100.00
10718;BME280;13513;42.700;23.124;2023-02-28T01:52:36;93343.74;;;6.72;100.00
10718;BME280;13513;42.700;23.124;2023-02-28T01:55:07;93344.51;;;6.79;100.00
10718;BME280;13513;42.700;23.124;2023-02-28T01:57:43;93348.29;;;6.74;100.00
10718;BME280;13513;42.700;23.124;2023-02-28T02:00:18;93347.81;;;6.68;100.00
10718;BME280;13513;42.700;23.124;2023-02-28T02:02:51;93344.11;;;6.67;100.00
10718;BME280;13513;42.700;23.124;2023-02-28T02:05:23;93344.45;;;6.61;100.00
10718;BME280;13513;42.700;23.124;2023-02-28T02:08:01;93348.97;;;6.63;100.00
10718;BME280;13513;42.700;23.124;2023-02-28T02:13:16;93357.95;;;6.65;100.00
10718;BME280;13513;42.700;23.124;2023-02-28T02:16:00;93345.44;;;6.60;100.00
10718;BME280;13513;42.700;23.124;2023-02-28T02:18:41;93351.47;;;6.52;100.00
10718;BME280;13513;42.700;23.124;2023-02-28T02:21:28;93349.88;;;6.44;100.00
10718;BME280;13513;42.700;23.124;2023-02-28T02:24:11;93352.80;;;6.45;100.00
10718;BME280;13513;42.700;23.124;2023-02-28T02:29:43;93355.34;;;6.27;100.00
10718;BME280;13513;42.700;23.124;2023-02-28T02:35:14;93345.63;;;6.34;100.00
10718;BME280;13513;42.700;23.124;2023-02-28T02:37:53;93350.47;;;6.31;100.00
10718;BME280;13513;42.700;23.124;2023-02-28T02:40:35;93354.77;;;6.41;100.00
10718;BME280;13513;42.700;23.124;2023-02-28T02:43:19;93357.06;;;6.46;100.00
10718;BME280;13513;42.700;23.124;2023-02-28T02:45:45;93354.77;;;6.41;100.00
10718;BME280;13513;42.700;23.124;2023-02-28T02:48:16;93357.64;;;6.26;100.00
10718;BME280;13513;42.700;23.124;2023-02-28T02:50:49;93354.81;;;6.28;100.00
10718;BME280;13513;42.700;23.124;2023-02-28T02:53:24;93359.81;;;6.36;100.00
10718;BME280;13513;42.700;23.124;2023-02-28T02:55:54;93352.59;;;6.47;100.00
10718;BME280;13513;42.700;23.124;2023-02-28T02:58:27;93354.72;;;6.47;100.00
10718;BME280;13513;42.700;23.124;2023-02-28T03:00:59;93358.58;;;6.45;100.00
10718;BME280;13513;42.700;23.124;2023-02-28T03:03:30;93362.97;;;6.35;100.00
10718;BME280;13513;42.700;23.124;2023-02-28T03:06:03;93364.77;;;6.35;100.00
10718;BME280;13513;42.700;23.124;2023-02-28T03:08:37;93356.08;;;6.41;100.00
10718;BME280;13513;42.700;23.124;2023-02-28T03:11:12;93364.84;;;6.44;100.00
10718;BME280;13513;42.700;23.124;2023-02-28T03:20:00;93364.23;;;6.20;100.00
10718;BME280;13513;42.700;23.124;2023-02-28T03:22:59;93360.61;;;5.99;100.00
10718;BME280;13513;42.700;23.124;2023-02-28T03:28:38;93375.50;;;6.11;100.00
10718;BME280;13513;42.700;23.124;2023-02-28T03:31:23;93378.00;;;6.15;100.00
10718;BME280;13513;42.700;23.124;2023-02-28T03:34:09;93379.66;;;6.25;100.00
10718;BME280;13513;42.700;23.124;2023-02-28T03:36:44;93384.20;;;6.27;100.00
10718;BME280;13513;42.700;23.124;2023-02-28T03:39:23;93385.11;;;6.24;100.00
10718;BME280;13513;42.700;23.124;2023-02-28T03:41:59;93385.11;;;6.24;100.00
10718;BME280;13513;42.700;23.124;2023-02-28T03:44:44;93391.38;;;6.23;100.00
10718;BME280;13513;42.700;23.124;2023-02-28T03:47:16;93397.64;;;6.22;100.00
10718;BME280;13513;42.700;23.124;2023-02-28T03:52:27;93345.03;;;5.88;100.00
10718;BME280;13513;42.700;23.124;2023-02-28T03:55:02;93397.36;;;6.14;100.00
10718;BME280;13513;42.700;23.124;2023-02-28T03:57:45;93400.98;;;5.85;100.00
10718;BME280;13513;42.700;23.124;2023-02-28T04:00:17;93403.16;;;5.53;100.00
10718;BME280;13513;42.700;23.124;2023-02-28T04:02:47;93403.16;;;5.53;100.00
10718;BME280;13513;42.700;23.124;2023-02-28T04:05:19;93415.27;;;5.34;100.00
10718;BME280;13513;42.700;23.124;2023-02-28T04:07:49;93412.03;;;5.32;100.00
10718;BME280;13513;42.700;23.124;2023-02-28T04:10:20;93407.09;;;5.27;100.00
10718;BME280;13513;42.700;23.124;2023-02-28T04:12:52;93411.95;;;5.17;100.00
10718;BME280;13513;42.700;23.124;2023-02-28T04:15:23;93405.78;;;4.94;100.00
10718;BME280;13513;42.700;23.124;2023-02-28T04:17:53;93414.25;;;5.03;100.00
10718;BME280;13513;42.700;23.124;2023-02-28T04:20:24;93408.13;;;5.19;100.00
10718;BME280;13513;42.700;23.124;2023-02-28T04:22:55;93409.82;;;5.23;100.00
10718;BME280;13513;42.700;23.124;2023-02-28T04:25:26;93409.23;;;5.27;100.00
10718;BME280;13513;42.700;23.124;2023-02-28T04:27:57;93409.09;;;5.44;100.00
10718;BME280;13513;42.700;23.124;2023-02-28T04:30:28;93403.75;;;5.48;100.00
10718;BME280;13513;42.700;23.124;2023-02-28T04:33:00;93411.20;;;5.58;100.00
10718;BME280;13513;42.700;23.124;2023-02-28T04:35:31;93414.71;;;5.67;100.00
10718;BME280;13513;42.700;23.124;2023-02-28T04:38:01;93411.76;;;5.79;100.00
10718;BME280;13513;42.700;23.124;2023-02-28T04:40:33;93411.76;;;5.79;100.00
10718;BME280;13513;42.700;23.124;2023-02-28T04:43:04;93428.63;;;5.81;100.00
10718;BME280;13513;42.700;23.124;2023-02-28T04:45:36;93421.65;;;5.90;100.00
10718;BME280;13513;42.700;23.124;2023-02-28T04:48:06;93424.98;;;5.95;100.00
10718;BME280;13513;42.700;23.124;2023-02-28T04:50:37;93430.05;;;5.90;100.00
10718;BME280;13513;42.700;23.124;2023-02-28T04:53:08;93428.73;;;5.90;100.00
10718;BME280;13513;42.700;23.124;2023-02-28T04:55:39;93429.94;;;5.81;100.00
10718;BME280;13513;42.700;23.124;2023-02-28T04:58:08;93429.94;;;5.81;100.00
10718;BME280;13513;42.700;23.124;2023-02-28T05:00:39;93437.08;;;5.70;100.00
10718;BME280;13513;42.700;23.124;2023-02-28T05:03:10;93439.70;;;5.70;100.00
10718;BME280;13513;42.700;23.124;2023-02-28T05:05:41;93438.50;;;5.79;100.00
10718;BME280;13513;42.700;23.124;2023-02-28T05:08:11;93438.80;;;5.86;100.00
10718;BME280;13513;42.700;23.124;2023-02-28T05:10:41;93439.58;;;6.00;100.00
10718;BME280;13513;42.700;23.124;2023-02-28T05:13:15;93433.41;;;6.10;100.00
10718;BME280;13513;42.700;23.124;2023-02-28T05:15:46;93433.59;;;6.15;100.00
10718;BME280;13513;42.700;23.124;2023-02-28T05:18:17;93433.47;;;6.19;100.00
10718;BME280;13513;42.700;23.124;2023-02-28T05:20:48;93443.17;;;6.12;100.00
10718;BME280;13513;42.700;23.124;2023-02-28T05:23:20;93441.39;;;6.06;100.00
10718;BME280;13513;42.700;23.124;2023-02-28T05:25:53;93446.95;;;6.00;100.00
10718;BME280;13513;42.700;23.124;2023-02-28T05:28:23;93448.73;;;6.06;100.00
10718;BME280;13513;42.700;23.124;2023-02-28T05:30:54;93451.72;;;5.88;100.00
10718;BME280;13513;42.700;23.124;2023-02-28T05:33:27;93451.72;;;5.88;100.00
10718;BME280;13513;42.700;23.124;2023-02-28T05:35:59;93459.67;;;5.77;100.00
10718;BME280;13513;42.700;23.124;2023-02-28T05:38:29;93455.55;;;5.79;100.00
10718;BME280;13513;42.700;23.124;2023-02-28T05:41:07;93454.73;;;5.78;100.00
10718;BME280;13513;42.700;23.124;2023-02-28T05:43:38;93464.13;;;5.64;100.00
10718;BME280;13513;42.700;23.124;2023-02-28T05:46:10;93466.54;;;5.52;100.00
10718;BME280;13513;42.700;23.124;2023-02-28T05:48:43;93469.47;;;5.60;100.00
10718;BME280;13513;42.700;23.124;2023-02-28T05:51:14;93468.75;;;5.62;100.00
10718;BME280;13513;42.700;23.124;2023-02-28T05:53:44;93466.34;;;5.47;100.00
10718;BME280;13513;42.700;23.124;2023-02-28T05:56:14;93464.14;;;5.57;100.00
10718;BME280;13513;42.700;23.124;2023-02-28T05:58:45;93475.82;;;5.68;100.00
10718;BME280;13513;42.700;23.124;2023-02-28T06:01:40;93465.34;;;5.81;100.00
10718;BME280;13513;42.700;23.124;2023-02-28T06:04:12;93474.20;;;5.73;100.00
10718;BME280;13513;42.700;23.124;2023-02-28T06:06:46;93472.69;;;5.62;100.00
10718;BME280;13513;42.700;23.124;2023-02-28T06:09:17;93472.69;;;5.62;100.00
10718;BME280;13513;42.700;23.124;2023-02-28T06:11:48;93473.00;;;5.69;100.00
10718;BME280;13513;42.700;23.124;2023-02-28T06:14:20;93476.64;;;5.81;100.00
10718;BME280;13513;42.700;23.124;2023-02-28T06:16:53;93477.55;;;5.84;100.00
10718;BME280;13513;42.700;23.124;2023-02-28T06:19:26;93478.64;;;5.92;100.00
10718;BME280;13513;42.700;23.124;2023-02-28T06:22:00;93479.43;;;5.93;100.00
10718;BME280;13513;42.700;23.124;2023-02-28T06:24:31;93477.69;;;6.15;100.00
10718;BME280;13513;42.700;23.124;2023-02-28T06:27:02;93481.71;;;6.18;100.00
10718;BME280;13513;42.700;23.124;2023-02-28T06:29:35;93482.63;;;6.21;100.00
10718;BME280;13513;42.700;23.124;2023-02-28T06:32:06;93480.52;;;6.01;100.00
10718;BME280;13513;42.700;23.124;2023-02-28T06:34:37;93480.53;;;6.07;100.00
10718;BME280;13513;42.700;23.124;2023-02-28T06:37:07;93489.50;;;6.02;100.00
10718;BME280;13513;42.700;23.124;2023-02-28T06:39:38;93492.30;;;6.20;100.00
10718;BME280;13513;42.700;23.124;2023-02-28T06:42:08;93497.18;;;6.39;100.00
10718;BME280;13513;42.700;23.124;2023-02-28T06:44:39;93495.61;;;6.60;100.00
10718;BME280;13513;42.700;23.124;2023-02-28T06:47:10;93499.84;;;6.61;100.00
10718;BME280;13513;42.700;23.124;2023-02-28T06:49:41;93501.73;;;6.63;100.00
10718;BME280;13513;42.700;23.124;2023-02-28T06:52:12;93508.67;;;6.73;100.00
10718;BME280;13513;42.700;23.124;2023-02-28T06:54:44;93504.32;;;6.76;100.00
10718;BME280;13513;42.700;23.124;2023-02-28T06:57:14;93513.31;;;6.93;100.00
10718;BME280;13513;42.700;23.124;2023-02-28T06:59:45;93505.02;;;6.96;100.00
10718;BME280;13513;42.700;23.124;2023-02-28T07:02:16;93507.32;;;7.01;100.00
10718;BME280;13513;42.700;23.124;2023-02-28T07:04:48;93509.66;;;7.16;100.00
10718;BME280;13513;42.700;23.124;2023-02-28T07:07:18;93505.87;;;7.27;100.00
10718;BME280;13513;42.700;23.124;2023-02-28T07:09:48;93507.13;;;7.34;100.00
10718;BME280;13513;42.700;23.124;2023-02-28T07:12:19;93508.75;;;7.19;100.00
10718;BME280;13513;42.700;23.124;2023-02-28T07:14:50;93506.98;;;7.22;100.00
10718;BME280;13513;42.700;23.124;2023-02-28T07:17:20;93507.13;;;7.34;100.00
10718;BME280;13513;42.700;23.124;2023-02-28T07:19:52;93510.87;;;7.35;100.00
10718;BME280;13513;42.700;23.124;2023-02-28T07:22:22;93519.80;;;7.28;100.00
10718;BME280;13513;42.700;23.124;2023-02-28T07:24:53;93512.36;;;7.25;100.00
10718;BME280;13513;42.700;23.124;2023-02-28T07:27:24;93508.03;;;7.37;100.00
10718;BME280;13513;42.700;23.124;2023-02-28T07:29:54;93505.25;;;7.25;100.00
10718;BME280;13513;42.700;23.124;2023-02-28T07:32:25;93499.94;;;7.38;100.00
10718;BME280;13513;42.700;23.124;2023-02-28T07:34:56;93504.79;;;7.35;100.00
10718;BME280;13513;42.700;23.124;2023-02-28T07:37:27;93505.67;;;7.22;100.00
10718;BME280;13513;42.700;23.124;2023-02-28T07:39:58;93503.09;;;7.16;100.00
10718;BME280;13513;42.700;23.124;2023-02-28T07:42:29;93507.52;;;7.22;100.00
10718;BME280;13513;42.700;23.124;2023-02-28T07:45:00;93512.28;;;7.16;100.00
10718;BME280;13513;42.700;23.124;2023-02-28T07:47:32;93508.88;;;7.15;100.00
10718;BME280;13513;42.700;23.124;2023-02-28T07:50:02;93502.67;;;7.19;100.00
10718;BME280;13513;42.700;23.124;2023-02-28T07:52:33;93504.45;;;7.09;100.00
10718;BME280;13513;42.700;23.124;2023-02-28T07:55:04;93503.34;;;7.08;100.00
10718;BME280;13513;42.700;23.124;2023-02-28T07:57:35;93507.32;;;7.17;100.00
10718;BME280;13513;42.700;23.124;2023-02-28T08:00:09;93503.87;;;7.07;100.00
10718;BME280;13513;42.700;23.124;2023-02-28T08:02:38;93499.52;;;7.04;100.00
10718;BME280;13513;42.700;23.124;2023-02-28T08:05:09;93510.80;;;7.26;100.00
10718;BME280;13513;42.700;23.124;2023-02-28T08:07:41;93505.53;;;7.33;100.00
10718;BME280;13513;42.700;23.124;2023-02-28T08:10:12;93505.47;;;7.24;100.00
10718;BME280;13513;42.700;23.124;2023-02-28T08:12:43;93508.61;;;7.39;100.00
10718;BME280;13513;42.700;23.124;2023-02-28T08:15:14;93512.42;;;7.58;100.00
10718;BME280;13513;42.700;23.124;2023-02-28T08:17:45;93516.61;;;7.90;100.00
10718;BME280;13513;42.700;23.124;2023-02-28T08:20:15;93520.97;;;8.12;100.00
10718;BME280;13513;42.700;23.124;2023-02-28T08:22:45;93526.16;;;8.25;100.00
10718;BME280;13513;42.700;23.124;2023-02-28T08:25:17;93523.24;;;8.42;100.00
10718;BME280;13513;42.700;23.124;2023-02-28T08:27:50;93523.77;;;8.51;100.00
10718;BME280;13513;42.700;23.124;2023-02-28T08:30:20;93517.69;;;8.50;100.00
10718;BME280;13513;42.700;23.124;2023-02-28T08:32:53;93514.95;;;8.29;100.00
10718;BME280;13513;42.700;23.124;2023-02-28T08:35:24;93513.00;;;8.34;100.00
10718;BME280;13513;42.700;23.124;2023-02-28T08:37:55;93514.10;;;8.36;100.00
10718;BME280;13513;42.700;23.124;2023-02-28T08:40:26;93511.86;;;8.48;100.00
10718;BME280;13513;42.700;23.124;2023-02-28T08:42:57;93509.79;;;8.50;100.00
10718;BME280;13513;42.700;23.124;2023-02-28T08:45:28;93513.81;;;8.35;100.00
10718;BME280;13513;42.700;23.124;2023-02-28T08:47:58;93518.02;;;8.26;100.00
10718;BME280;13513;42.700;23.124;2023-02-28T08:50:28;93518.06;;;8.20;100.00
10718;BME280;13513;42.700;23.124;2023-02-28T08:52:59;93518.98;;;8.23;100.00
10718;BME280;13513;42.700;23.124;2023-02-28T08:55:30;93521.86;;;8.15;100.00
10718;BME280;13513;42.700;23.124;2023-02-28T08:58:01;93519.57;;;8.00;100.00
10718;BME280;13513;42.700;23.124;2023-02-28T09:00:31;93521.53;;;8.05;100.00
10718;BME280;13513;42.700;23.124;2023-02-28T09:03:02;93517.69;;;8.07;100.00
10718;BME280;13513;42.700;23.124;2023-02-28T09:05:33;93513.78;;;8.01;100.00
10718;BME280;13513;42.700;23.124;2023-02-28T09:08:04;93512.19;;;8.09;100.00
10718;BME280;13513;42.700;23.124;2023-02-28T09:10:35;93508.01;;;7.92;100.00
10718;BME280;13513;42.700;23.124;2023-02-28T09:13:06;93507.37;;;8.06;100.00
10718;BME280;13513;42.700;23.124;2023-02-28T09:15:39;93511.35;;;7.90;100.00
10718;BME280;13513;42.700;23.124;2023-02-28T09:18:10;93514.41;;;7.87;100.00
10718;BME280;13513;42.700;23.124;2023-02-28T09:20:42;93511.76;;;7.78;100.00
10718;BME280;13513;42.700;23.124;2023-02-28T09:23:13;93512.24;;;7.93;100.00
10718;BME280;13513;42.700;23.124;2023-02-28T09:25:54;93513.62;;;7.87;100.00
10718;BME280;13513;42.700;23.124;2023-02-28T09:28:24;93515.91;;;7.77;100.00
10718;BME280;13513;42.700;23.124;2023-02-28T09:30:55;93517.70;;;7.83;100.00
10718;BME280;13513;42.700;23.124;2023-02-28T09:33:25;93511.62;;;7.82;100.00
10718;BME280;13513;42.700;23.124;2023-02-28T09:36:00;93520.91;;;7.85;100.00
10718;BME280;13513;42.700;23.124;2023-02-28T09:38:30;93513.92;;;7.97;100.00
10718;BME280;13513;42.700;23.124;2023-02-28T09:41:27;93508.01;;;7.92;100.00
10718;BME280;13513;42.700;23.124;2023-02-28T09:43:41;93509.89;;;7.94;100.00
10718;BME280;13513;42.700;23.124;2023-02-28T09:46:40;93508.97;;;7.98;100.00
10718;BME280;13513;42.700;23.124;2023-02-28T09:49:16;93510.29;;;7.73;100.00
10718;BME280;13513;42.700;23.124;2023-02-28T09:51:59;93508.87;;;7.95;100.00
10718;BME280;13513;42.700;23.124;2023-02-28T09:54:32;93511.64;;;7.91;100.00
10718;BME280;13513;42.700;23.124;2023-02-28T09:57:08;93507.03;;;8.11;100.00
10718;BME280;13513;42.700;23.124;2023-02-28T10:05:22;93502.75;;;8.01;100.00
10718;BME280;13513;42.700;23.124;2023-02-28T10:10:53;93492.55;;;8.20;100.00
10718;BME280;13513;42.700;23.124;2023-02-28T10:13:32;93490.13;;;8.35;100.00
10718;BME280;13513;42.700;23.124;2023-02-28T10:16:03;93487.91;;;8.41;100.00
10718;BME280;13513;42.700;23.124;2023-02-28T10:18:41;93489.01;;;8.51;100.00
10718;BME280;13513;42.700;23.124;2023-02-28T10:21:12;93484.78;;;8.41;100.00
10718;BME280;13513;42.700;23.124;2023-02-28T10:23:39;93484.26;;;8.60;100.00
10718;BME280;13513;42.700;23.124;2023-02-28T10:26:12;93483.91;;;8.56;100.00
10718;BME280;13513;42.700;23.124;2023-02-28T10:28:43;93484.17;;;8.66;100.00
10718;BME280;13513;42.700;23.124;2023-02-28T10:31:18;93484.02;;;8.88;100.00
10718;BME280;13513;42.700;23.124;2023-02-28T10:33:49;93481.07;;;8.96;100.00
10718;BME280;13513;42.700;23.124;2023-02-28T10:36:21;93474.89;;;9.11;100.00
10718;BME280;13513;42.700;23.124;2023-02-28T10:38:53;93471.66;;;9.09;100.00
10718;BME280;13513;42.700;23.124;2023-02-28T10:41:29;93469.24;;;9.08;100.00
10718;BME280;13513;42.700;23.124;2023-02-28T10:44:21;93460.20;;;9.24;100.00
10718;BME280;13513;42.700;23.124;2023-02-28T10:46:51;93463.72;;;8.98;100.00
10718;BME280;13513;42.700;23.124;2023-02-28T10:49:27;93453.76;;;9.29;100.00
10718;BME280;13513;42.700;23.124;2023-02-28T10:51:59;93446.03;;;9.48;100.00
10718;BME280;13513;42.700;23.124;2023-02-28T10:54:34;93444.13;;;9.78;100.00
10718;BME280;13513;42.700;23.124;2023-02-28T10:57:22;93440.75;;;9.92;100.00
10718;BME280;13513;42.700;23.124;2023-02-28T10:59:53;93438.86;;;10.01;100.00
10718;BME280;13513;42.700;23.124;2023-02-28T11:02:36;93433.38;;;10.26;100.00
10718;BME280;13513;42.700;23.124;2023-02-28T11:05:29;93440.08;;;10.31;100.00
10718;BME280;13513;42.700;23.124;2023-02-28T11:08:13;93429.77;;;10.29;100.00
10718;BME280;13513;42.700;23.124;2023-02-28T11:10:53;93423.59;;;10.38;100.00
10718;BME280;13513;42.700;23.124;2023-02-28T11:13:28;93418.58;;;10.50;100.00
10718;BME280;13513;42.700;23.124;2023-02-28T11:15:56;93412.74;;;10.62;100.00
10718;BME280;13513;42.700;23.124;2023-02-28T11:18:51;93410.65;;;10.50;100.00
10718;BME280;13513;42.700;23.124;2023-02-28T11:21:36;93404.86;;;10.65;100.00
10718;BME280;13513;42.700;23.124;2023-02-28T11:24:23;93407.73;;;10.49;100.00
10718;BME280;13513;42.700;23.124;2023-02-28T11:26:51;93399.09;;;10.54;100.00
10718;BME280;13513;42.700;23.124;2023-02-28T11:29:26;93392.76;;;10.80;100.00
10718;BME280;13513;42.700;23.124;2023-02-28T11:34:41;93397.91;;;11.01;100.00
10718;BME280;13513;42.700;23.124;2023-02-28T11:37:15;93396.75;;;11.25;100.00
10718;BME280;13513;42.700;23.124;2023-02-28T11:39:46;93397.86;;;11.43;100.00
10718;BME280;13513;42.700;23.124;2023-02-28T11:50:52;93390.94;;;11.42;100.00
10718;BME280;13513;42.700;23.124;2023-02-28T11:56:14;93389.08;;;11.26;100.00
10718;BME280;13513;42.700;23.124;2023-02-28T11:58:59;93390.80;;;11.18;100.00
10718;BME280;13513;42.700;23.124;2023-02-28T12:01:45;93391.69;;;11.23;100.00
10718;BME280;13513;42.700;23.124;2023-02-28T12:04:16;93388.69;;;11.34;100.00
10718;BME280;13513;42.700;23.124;2023-02-28T12:10:14;93386.00;;;11.78;100.00
10718;BME280;13513;42.700;23.124;2023-02-28T12:12:46;93379.77;;;12.03;100.00
10718;BME280;13513;42.700;23.124;2023-02-28T12:18:21;93369.95;;;11.21;100.00
10718;BME280;13513;42.700;23.124;2023-02-28T12:23:46;93365.75;;;11.23;100.00
10718;BME280;13513;42.700;23.124;2023-02-28T12:26:36;93374.81;;;11.10;100.00
10718;BME280;13513;42.700;23.124;2023-02-28T12:29:17;93369.56;;;10.85;100.00
10718;BME280;13513;42.700;23.124;2023-02-28T12:31:53;93377.41;;;10.80;100.00
10718;BME280;13513;42.700;23.124;2023-02-28T12:34:35;93368.06;;;10.75;100.00
10718;BME280;13513;42.700;23.124;2023-02-28T12:37:10;93366.98;;;10.73;100.00
10718;BME280;13513;42.700;23.124;2023-02-28T12:39:41;93364.19;;;10.94;100.00
10718;BME280;13513;42.700;23.124;2023-02-28T12:42:13;93363.80;;;10.88;100.00
10718;BME280;13513;42.700;23.124;2023-02-28T12:44:51;93368.69;;;10.79;100.00
10718;BME280;13513;42.700;23.124;2023-02-28T12:47:17;93364.66;;;10.77;100.00
10718;BME280;13513;42.700;23.124;2023-02-28T12:50:05;93366.47;;;10.74;100.00
10718;BME280;13513;42.700;23.124;2023-02-28T12:52:59;93360.08;;;10.86;100.00
10718;BME280;13513;42.700;23.124;2023-02-28T12:55:46;93361.81;;;10.81;100.00
10718;BME280;13513;42.700;23.124;2023-02-28T12:58:27;93351.52;;;10.96;100.00
10718;BME280;13513;42.700;23.124;2023-02-28T13:04:27;93355.91;;;11.04;100.00
10718;BME280;13513;42.700;23.124;2023-02-28T13:09:40;93348.30;;;10.91;100.00
10718;BME280;13513;42.700;23.124;2023-02-28T13:12:16;93346.16;;;10.77;100.00
10718;BME280;13513;42.700;23.124;2023-02-28T13:14:47;93345.52;;;10.70;100.00
10718;BME280;13513;42.700;23.124;2023-02-28T13:17:23;93341.67;;;10.63;100.00
10718;BME280;13513;42.700;23.124;2023-02-28T13:19:57;93341.27;;;10.55;100.00
10718;BME280;13513;42.700;23.124;2023-02-28T13:22:39;93339.09;;;10.52;100.00
10718;BME280;13513;42.700;23.124;2023-02-28T13:25:49;93341.45;;;10.51;100.00
10718;BME280;13513;42.700;23.124;2023-02-28T13:28:00;93349.81;;;10.34;100.00
10718;BME280;13513;42.700;23.124;2023-02-28T13:34:04;93341.33;;;10.46;100.00
10718;BME280;13513;42.700;23.124;2023-02-28T13:38:55;93336.92;;;10.63;100.00
10718;BME280;13513;42.700;23.124;2023-02-28T13:41:42;93339.98;;;10.57;100.00
10718;BME280;13513;42.700;23.124;2023-02-28T13:44:22;93335.82;;;10.47;100.00
10718;BME280;13513;42.700;23.124;2023-02-28T13:49:33;93325.92;;;10.54;100.00
10718;BME280;13513;42.700;23.124;2023-02-28T14:00:26;93318.27;;;10.55;100.00
10718;BME280;13513;42.700;23.124;2023-02-28T14:05:44;93318.13;;;10.76;100.00
10718;BME280;13513;42.700;23.124;2023-02-28T14:08:21;93322.33;;;10.88;100.00
10718;BME280;13513;42.700;23.124;2023-02-28T14:11:02;93331.06;;;10.75;100.00
10718;BME280;13513;42.700;23.124;2023-02-28T14:13:45;93318.00;;;10.68;100.00
10718;BME280;13513;42.700;23.124;2023-02-28T14:16:25;93325.16;;;10.42;100.00
10718;BME280;13513;42.700;23.124;2023-02-28T14:18:58;93323.66;;;10.46;100.00
10718;BME280;13513;42.700;23.124;2023-02-28T14:21:34;93322.16;;;10.64;100.00
10718;BME280;13513;42.700;23.124;2023-02-28T14:24:41;93317.15;;;10.65;100.00
10718;BME280;13513;42.700;23.124;2023-02-28T14:27:24;93318.98;;;10.65;100.00
10718;BME280;13513;42.700;23.124;2023-02-28T14:41:23;93323.98;;;10.36;100.00
10718;BME280;13513;42.700;23.124;2023-02-28T14:43:57;93323.80;;;10.40;100.00
10718;BME280;13513;42.700;23.124;2023-02-28T14:46:30;93326.23;;;10.30;100.00
10718;BME280;13513;42.700;23.124;2023-02-28T14:48:59;93316.48;;;10.30;100.00
10718;BME280;13513;42.700;23.124;2023-02-28T14:51:31;93315.81;;;10.23;100.00